Time;durP1;ratioP1;P1;durP2;ratioP2;P2;SDS_P1;SDS_P2;PMS_P1;PMS_P2;Temp;Humidity;BMP_temperature;BMP_pressure;BME280_temperature;BME280_humidity;BME280_pressure;Samples;Min_cycle;Max_cycle;Signal;HPM_P1;HPM_P2
2021/08/02 00:00:06;;;;;;;;;;;13.10;93.70;;;15.96;81.22;101171.84;4378452;39;96713;-77
2021/08/02 00:03:24;;;;;;;;;;;13.10;93.80;;;16.13;80.79;101182.53;4380051;39;96729;-77
2021/08/02 00:06:34;;;;;;;;;;;13.00;93.70;;;16.14;80.69;101176.00;4344631;39;98453;-78
2021/08/02 00:09:42;;;;;;;;;;;13.10;93.80;;;16.11;80.20;101172.06;4376918;39;97453;-77
2021/08/02 00:12:51;;;;;;;;;;;13.10;93.80;;;16.11;80.94;101179.38;4382743;39;96995;-78
2021/08/02 00:15:56;;;;;;;;;;;13.10;93.80;;;16.14;80.33;101173.31;4379214;39;98363;-77
2021/08/02 00:19:00;;;;;;;;;;;13.10;93.80;;;16.17;79.91;101178.88;4377323;39;98783;-77
2021/08/02 00:22:06;;;;;;;;;;;13.00;93.70;;;16.17;80.03;101173.47;4381232;39;97512;-77
2021/08/02 00:25:12;;;;;;;;;;;13.00;93.70;;;16.15;80.28;101177.59;4366218;39;96805;-78
2021/08/02 00:28:18;;;;;;;;;;;13.00;93.70;;;16.14;80.31;101173.31;4378140;39;97435;-77
2021/08/02 00:31:22;;;;;;;;;;;13.00;93.70;;;16.10;80.22;101172.38;4370532;39;96825;-76
2021/08/02 00:34:26;;;;;;;;;;;13.00;93.80;;;16.13;80.47;101174.44;4372493;39;98180;-78
2021/08/02 00:37:37;;;;;;;;;;;13.00;93.70;;;16.11;80.67;101169.38;4380479;39;98475;-78
2021/08/02 00:41:17;;;;;;;;;;;12.90;93.70;;;16.09;80.04;101178.91;4371600;39;97798;-76
2021/08/02 00:45:19;;;;;;;;;;;13.00;93.80;;;16.08;79.52;101175.44;4382997;39;97539;-76
2021/08/02 00:48:28;;;;;;;;;;;12.90;93.80;;;16.11;79.57;101174.78;4379295;39;97488;-78
2021/08/02 00:51:38;;;;;;;;;;;12.90;93.80;;;16.11;80.43;101182.88;4381104;39;97748;-76
2021/08/02 00:54:43;;;;;;;;;;;12.90;93.80;;;16.08;80.64;101186.25;4378578;39;96762;-76
2021/08/02 00:57:50;;;;;;;;;;;12.90;93.80;;;16.03;80.00;101189.09;4371655;39;99287;-76
2021/08/02 01:00:57;;;;;;;;;;;12.90;93.80;;;15.93;79.95;101189.50;4367570;39;99375;-76
2021/08/02 01:04:09;;;;;;;;;;;12.90;93.70;;;15.87;80.67;101190.78;4376136;39;97579;-76
2021/08/02 01:07:15;;;;;;;;;;;12.80;93.60;;;15.85;80.37;101195.75;4381297;39;96632;-76
2021/08/02 01:10:19;;;;;;;;;;;12.80;93.70;;;15.79;80.26;101186.22;4372095;39;98477;-76
2021/08/02 01:13:27;;;;;;;;;;;12.80;93.60;;;15.78;79.80;101194.66;4372242;39;97397;-76
2021/08/02 01:16:35;;;;;;;;;;;12.70;93.60;;;15.71;80.39;101188.97;4385660;39;97566;-76
2021/08/02 01:19:40;;;;;;;;;;;12.60;93.60;;;15.65;80.09;101190.28;4388025;39;96644;-76
2021/08/02 01:22:47;;;;;;;;;;;12.60;93.60;;;15.51;80.82;101192.38;4370623;39;97395;-76
2021/08/02 01:26:41;;;;;;;;;;;12.60;93.60;;;15.61;79.78;101192.00;4378913;39;97012;-77
2021/08/02 01:30:21;;;;;;;;;;;12.50;93.60;;;15.63;80.32;101189.00;4381116;39;97555;-77
2021/08/02 01:33:34;;;;;;;;;;;12.50;93.70;;;15.64;79.56;101194.09;4379289;39;97511;-77
2021/08/02 01:36:43;;;;;;;;;;;12.50;93.80;;;15.64;79.75;101190.56;4376442;39;97016;-77
2021/08/02 01:39:53;;;;;;;;;;;12.50;93.80;;;15.63;80.31;101192.50;4377526;39;97510;-77
2021/08/02 01:43:01;;;;;;;;;;;12.50;93.70;;;15.65;80.31;101189.47;4372159;39;96608;-76
2021/08/02 01:46:15;;;;;;;;;;;12.50;93.80;;;15.59;80.46;101191.53;4369818;39;97680;-77
2021/08/02 01:49:27;;;;;;;;;;;12.50;93.80;;;15.63;79.88;101189.81;4378801;39;96744;-76
2021/08/02 01:52:42;;;;;;;;;;;12.50;93.80;;;15.64;80.57;101194.09;4377655;39;98315;-76
2021/08/02 01:56:06;;;;;;;;;;;12.50;93.80;;;15.64;81.28;101187.88;4369452;39;97863;-77
2021/08/02 01:59:15;;;;;;;;;;;12.40;93.90;;;15.76;81.38;101192.28;4379248;39;97195;-77
2021/08/02 02:02:22;;;;;;;;;;;12.50;94.10;;;15.91;81.50;101191.72;4381248;39;96723;-77
2021/08/02 02:05:33;;;;;;;;;;;12.60;94.20;;;16.01;81.51;101190.56;4379476;39;96907;-77
2021/08/02 02:08:41;;;;;;;;;;;12.60;94.20;;;16.07;80.88;101189.25;4378210;39;96909;-76
2021/08/02 02:12:03;;;;;;;;;;;12.70;94.30;;;15.94;81.54;101187.59;4371487;39;98352;-76
2021/08/02 02:15:13;;;;;;;;;;;12.80;94.30;;;15.96;82.06;101185.34;4380648;39;97217;-76
2021/08/02 02:18:19;;;;;;;;;;;12.80;94.30;;;15.96;81.90;101188.06;4372506;39;97587;-77
2021/08/02 02:21:27;;;;;;;;;;;12.80;94.20;;;15.82;81.37;101198.28;4369911;39;97371;-77
2021/08/02 02:24:36;;;;;;;;;;;12.80;94.10;;;15.64;81.17;101193.28;4374307;39;96722;-77
2021/08/02 02:27:45;;;;;;;;;;;12.80;93.90;;;15.54;80.85;101190.94;4376152;39;97334;-76
2021/08/02 02:30:52;;;;;;;;;;;12.70;93.80;;;15.45;81.26;101192.84;4379720;39;97273;-77
2021/08/02 02:34:00;;;;;;;;;;;12.60;93.80;;;15.43;81.33;101195.91;4356651;39;97670;-76
2021/08/02 02:37:07;;;;;;;;;;;12.60;93.90;;;15.35;81.60;101194.03;4370858;39;97591;-77
2021/08/02 02:40:14;;;;;;;;;;;12.50;93.80;;;15.30;81.67;101196.09;4369992;39;97691;-76
2021/08/02 02:43:22;;;;;;;;;;;12.50;93.80;;;15.24;81.42;101197.34;4379779;39;97640;-77
2021/08/02 02:46:27;;;;;;;;;;;12.40;93.70;;;15.17;81.10;101195.13;4372678;39;97649;-77
2021/08/02 02:49:37;;;;;;;;;;;12.30;93.70;;;15.16;81.51;101198.94;4380143;39;118023;-76
2021/08/02 02:52:41;;;;;;;;;;;12.30;93.80;;;15.16;80.62;101201.63;4364579;39;98213;-76
2021/08/02 02:55:46;;;;;;;;;;;12.20;93.70;;;15.11;80.86;101199.13;4379974;39;98185;-76
2021/08/02 02:58:54;;;;;;;;;;;12.20;93.80;;;15.07;81.05;101208.97;4380851;39;97552;-76
2021/08/02 03:02:01;;;;;;;;;;;12.10;93.70;;;15.03;80.63;101209.91;4376818;39;97191;-76
2021/08/02 03:05:11;;;;;;;;;;;12.10;93.80;;;15.03;81.12;101210.72;4380608;39;97664;-76
2021/08/02 03:08:18;;;;;;;;;;;12.00;93.80;;;15.03;80.80;101210.72;4372430;39;97811;-76
2021/08/02 03:11:24;;;;;;;;;;;12.00;93.80;;;14.98;80.78;101213.56;4387435;39;97646;-76
2021/08/02 03:14:31;;;;;;;;;;;12.00;93.90;;;14.94;80.94;101215.31;4378929;39;97497;-76
2021/08/02 03:17:34;;;;;;;;;;;12.00;93.90;;;14.98;81.11;101218.19;4362025;39;97062;-76
2021/08/02 03:20:38;;;;;;;;;;;12.00;94.00;;;15.00;81.04;101219.44;4368549;39;96634;-76
2021/08/02 03:23:55;;;;;;;;;;;12.00;94.10;;;15.03;81.44;101221.53;4386528;39;98181;-76
2021/08/02 03:27:05;;;;;;;;;;;12.00;94.10;;;15.09;81.88;101222.94;4376792;39;97600;-76
2021/08/02 03:30:12;;;;;;;;;;;12.00;94.20;;;15.09;81.57;101217.53;4378336;39;99466;-76
2021/08/02 03:33:21;;;;;;;;;;;12.00;94.30;;;15.15;81.43;101218.94;4378838;39;96983;-76
2021/08/02 03:36:25;;;;;;;;;;;12.00;94.30;;;15.10;81.41;101221.00;4370866;39;98546;-76
2021/08/02 03:39:30;;;;;;;;;;;12.00;94.30;;;15.01;81.62;101223.75;4380346;39;97524;-76
2021/08/02 03:42:39;;;;;;;;;;;12.00;94.20;;;15.09;81.31;101219.44;4377898;39;97650;-76
2021/08/02 03:45:46;;;;;;;;;;;12.00;94.20;;;15.07;81.26;101225.16;4381680;39;96775;-76
2021/08/02 03:48:51;;;;;;;;;;;12.00;94.20;;;15.05;81.61;101227.38;4370396;39;97636;-76
2021/08/02 03:51:57;;;;;;;;;;;12.00;94.20;;;15.06;81.91;101226.28;4373486;39;96798;-76
2021/08/02 03:55:04;;;;;;;;;;;12.00;94.20;;;15.07;82.07;101225.16;4383070;39;97434;-76
2021/08/02 03:58:09;;;;;;;;;;;12.00;94.20;;;15.08;81.42;101234.84;4379727;39;96810;-76
2021/08/02 04:01:14;;;;;;;;;;;12.10;94.50;;;15.13;81.19;101237.38;4381045;39;96827;-76
2021/08/02 04:04:18;;;;;;;;;;;12.10;94.20;;;15.10;81.25;101243.41;4381636;39;97597;-76
2021/08/02 04:07:22;;;;;;;;;;;12.10;94.10;;;15.08;81.20;101247.53;4378317;39;96912;-76
2021/08/02 04:10:27;;;;;;;;;;;12.10;94.10;;;15.07;80.64;101249.44;4377335;39;97481;-76
2021/08/02 04:13:31;;;;;;;;;;;12.00;94.00;;;15.07;80.95;101248.66;4380248;39;98674;-77
2021/08/02 04:16:37;;;;;;;;;;;12.10;94.00;;;15.12;81.19;101253.88;4379938;39;97452;-76
2021/08/02 04:19:41;;;;;;;;;;;12.10;94.10;;;15.16;80.81;101250.22;4373459;39;96858;-76
2021/08/02 04:22:47;;;;;;;;;;;12.10;94.00;;;15.16;80.36;101255.63;4380186;39;96624;-76
2021/08/02 04:25:52;;;;;;;;;;;12.10;94.00;;;15.16;81.11;101258.31;4368852;39;97108;-76
2021/08/02 04:28:56;;;;;;;;;;;12.10;93.90;;;15.24;80.28;101262.13;4365938;39;97405;-76
2021/08/02 04:32:04;;;;;;;;;;;12.10;94.00;;;15.38;80.37;101260.88;4381027;39;97007;-76
2021/08/02 04:35:09;;;;;;;;;;;12.20;94.00;;;15.54;80.88;101256.53;4373183;39;98522;-76
2021/08/02 04:38:13;;;;;;;;;;;12.30;94.10;;;15.65;81.33;101257.00;4376805;39;97440;-76
2021/08/02 04:41:16;;;;;;;;;;;12.30;94.10;;;15.75;81.41;101257.44;4373858;39;97328;-76
2021/08/02 04:44:20;;;;;;;;;;;12.40;94.10;;;15.72;81.25;101258.09;4373787;39;98852;-76
2021/08/02 04:47:25;;;;;;;;;;;12.40;94.10;;;15.77;81.47;101257.91;4380765;39;98054;-76
2021/08/02 04:50:32;;;;;;;;;;;12.50;94.10;;;15.82;80.26;101260.44;4370461;39;96722;-77
2021/08/02 04:53:35;;;;;;;;;;;12.60;94.30;;;15.85;80.30;101266.00;4377983;39;97858;-76
2021/08/02 04:56:39;;;;;;;;;;;12.60;94.00;;;15.88;80.45;101264.53;4378179;39;96869;-76
2021/08/02 04:59:43;;;;;;;;;;;12.70;94.00;;;15.96;80.45;101267.22;4376088;39;97592;-77
2021/08/02 05:02:48;;;;;;;;;;;12.80;94.00;;;16.06;79.89;101275.00;4378240;39;100176;-76
2021/08/02 05:05:54;;;;;;;;;;;12.80;93.90;;;16.27;80.56;101277.75;4376998;39;98881;-77
2021/08/02 05:08:57;;;;;;;;;;;12.90;93.90;;;16.78;79.54;101283.66;4378868;39;97136;-77
2021/08/02 05:12:01;;;;;;;;;;;13.20;93.80;;;17.33;78.86;101273.38;4379000;39;98564;-77
2021/08/02 05:15:10;;;;;;;;;;;13.50;93.50;;;17.85;77.67;101283.31;4358529;39;99619;-77
2021/08/02 05:18:15;;;;;;;;;;;13.90;93.10;;;18.17;76.78;101278.97;4371619;39;96937;-76
2021/08/02 05:21:19;;;;;;;;;;;14.20;92.90;;;18.49;75.95;101284.28;4385747;39;98488;-76
2021/08/02 05:24:23;;;;;;;;;;;14.50;92.60;;;18.75;75.96;101287.41;4371815;39;96566;-77
2021/08/02 05:27:27;;;;;;;;;;;14.80;92.50;;;18.88;75.81;101288.97;4380960;39;97080;-77
2021/08/02 05:30:30;;;;;;;;;;;15.00;92.40;;;19.02;76.32;101286.69;4373373;39;97040;-77
2021/08/02 05:33:35;;;;;;;;;;;15.20;92.30;;;19.20;76.57;101282.56;4372230;39;97439;-77
2021/08/02 05:36:39;;;;;;;;;;;15.40;92.30;;;19.39;76.57;101286.22;4376582;39;97414;-77
2021/08/02 05:39:43;;;;;;;;;;;15.50;92.10;;;20.09;74.31;101288.09;4378977;39;96784;-77
2021/08/02 05:42:47;;;;;;;;;;;16.10;91.70;;;21.16;72.32;101299.91;4377382;39;97584;-77
2021/08/02 05:45:51;;;;;;;;;;;16.70;91.40;;;24.43;62.81;101288.56;4364855;39;97511;-77
2021/08/02 05:48:56;;;;;;;;;;;18.40;89.40;;;25.26;62.15;101288.31;4368867;39;97996;-77
2021/08/02 05:52:00;;;;;;;;;;;19.70;86.30;;;29.74;52.38;101277.19;4379440;39;99622;-77
2021/08/02 05:55:09;;;;;;;;;;;22.10;82.50;;;33.00;46.72;101277.16;4371149;39;96753;-76
2021/08/02 05:58:13;;;;;;;;;;;25.00;76.60;;;35.26;43.98;101277.09;4381835;39;98695;-77
2021/08/02 06:01:16;;;;;;;;;;;27.40;72.20;;;37.16;41.73;101279.78;4369070;39;97198;-77
2021/08/02 06:04:22;;;;;;;;;;;29.50;69.50;;;38.77;41.24;101274.50;4379391;39;97072;-76
2021/08/02 06:07:26;;;;;;;;;;;31.30;67.40;;;39.26;41.92;101278.22;4373474;39;98014;-76
2021/08/02 06:10:30;;;;;;;;;;;32.40;66.40;;;38.88;43.94;101269.09;4379094;39;97035;-76
2021/08/02 06:13:34;;;;;;;;;;;32.90;65.50;;;40.39;42.67;101268.38;4377883;39;96711;-76
2021/08/02 06:16:37;;;;;;;;;;;33.90;65.30;;;36.48;52.33;101271.28;4380928;39;97945;-76
2021/08/02 06:19:44;;;;;;;;;;;32.70;67.40;;;33.62;58.35;101277.25;4375546;39;97422;-76
2021/08/02 06:22:47;;;;;;;;;;;31.10;70.50;;;34.16;57.48;101277.91;4377500;39;96872;-76
2021/08/02 06:25:51;;;;;;;;;;;30.30;73.10;;;35.53;54.61;101271.66;4379373;39;97095;-76
2021/08/02 06:28:55;;;;;;;;;;;30.40;73.70;;;36.07;53.56;101278.22;4371711;39;96659;-76
2021/08/02 06:31:58;;;;;;;;;;;30.90;72.80;;;33.90;58.67;101281.94;4381346;39;96800;-76
2021/08/02 06:35:08;;;;;;;;;;;30.20;73.30;;;36.42;53.53;101278.72;4370232;39;97736;-76
2021/08/02 06:38:12;;;;;;;;;;;30.60;74.70;;;40.44;45.11;101280.97;4380453;39;96908;-76
2021/08/02 06:41:16;;;;;;;;;;;32.70;71.10;;;41.79;43.30;101279.94;4361094;39;97760;-76
2021/08/02 06:44:20;;;;;;;;;;;34.30;68.00;;;43.21;41.38;101276.81;4387638;39;98201;-77
2021/08/02 06:47:24;;;;;;;;;;;35.50;66.90;;;44.65;39.70;101277.97;4364887;39;97612;-76
2021/08/02 06:50:29;;;;;;;;;;;36.80;64.80;;;41.22;46.83;101276.41;4372049;39;96781;-76
2021/08/02 06:53:33;;;;;;;;;;;36.00;66.30;;;41.53;45.89;101287.69;4362457;39;96553;-76
2021/08/02 06:56:37;;;;;;;;;;;36.00;65.80;;;37.43;54.62;101284.50;4358881;39;97240;-76
2021/08/02 06:59:41;;;;;;;;;;;34.40;68.20;;;34.02;61.42;101285.94;4374433;39;97393;-76
2021/08/02 07:02:44;;;;;;;;;;;32.30;71.00;;;31.26;65.77;101287.88;4378578;39;97528;-76
2021/08/02 07:05:51;;;;;;;;;;;30.20;72.60;;;29.33;69.32;101289.59;4375893;39;97693;-76
2021/08/02 07:08:56;;;;;;;;;;;28.40;74.70;;;28.38;71.35;101283.59;4373989;39;96861;-75
2021/08/02 07:12:00;;;;;;;;;;;27.00;77.70;;;28.45;70.55;101287.03;4380641;39;97773;-75
2021/08/02 07:15:08;;;;;;;;;;;26.10;80.10;;;27.82;71.46;101289.53;4377743;39;96741;-75
2021/08/02 07:18:11;;;;;;;;;;;25.40;81.10;;;27.46;71.05;101294.44;4375872;39;97233;-75
2021/08/02 07:21:16;;;;;;;;;;;24.80;81.80;;;30.46;65.58;101270.84;4369994;39;97464;-75
2021/08/02 07:24:20;;;;;;;;;;;25.10;82.80;;;34.51;54.90;101288.59;4378023;39;96800;-76
2021/08/02 07:27:24;;;;;;;;;;;27.00;79.90;;;35.21;52.95;101293.63;4378017;39;97577;-75
2021/08/02 07:30:28;;;;;;;;;;;28.00;78.30;;;40.88;41.41;101289.91;4366150;39;97588;-76
2021/08/02 07:33:32;;;;;;;;;;;30.30;74.80;;;42.73;39.34;101275.47;4378513;39;97333;-76
2021/08/02 07:36:37;;;;;;;;;;;32.20;71.40;;;45.40;35.63;101286.41;4375586;39;97723;-76
2021/08/02 07:39:41;;;;;;;;;;;34.20;68.70;;;46.51;35.31;101283.09;4377722;39;97920;-76
2021/08/02 07:42:45;;;;;;;;;;;35.90;66.80;;;45.64;37.56;101289.28;4355422;39;99786;-76
2021/08/02 07:45:48;;;;;;;;;;;36.80;65.70;;;45.12;39.55;101285.88;4377911;39;97347;-77
2021/08/02 07:48:53;;;;;;;;;;;37.20;65.80;;;41.75;47.18;101287.84;4359211;39;99048;-77
2021/08/02 07:51:58;;;;;;;;;;;36.50;67.30;;;45.71;38.67;101290.75;4376074;39;97095;-77
2021/08/02 07:55:03;;;;;;;;;;;36.40;68.60;;;46.88;36.68;101283.84;4375027;39;96903;-77
2021/08/02 07:58:10;;;;;;;;;;;37.00;67.80;;;44.71;42.17;101290.00;4371151;39;97473;-77
2021/08/02 08:01:15;;;;;;;;;;;37.20;67.40;;;43.93;43.95;101285.94;4385631;39;97866;-77
2021/08/02 08:04:18;;;;;;;;;;;37.10;68.10;;;45.47;40.46;101285.03;4368511;39;96809;-77
2021/08/02 08:07:24;;;;;;;;;;;36.90;69.10;;;49.59;33.63;101289.69;4368059;39;96839;-77
2021/08/02 08:10:29;;;;;;;;;;;37.80;68.70;;;48.80;36.57;101280.06;4376224;39;98440;-77
2021/08/02 08:13:33;;;;;;;;;;;38.90;67.00;;;47.83;38.36;101273.13;4362736;39;97548;-78
2021/08/02 08:16:37;;;;;;;;;;;39.20;67.20;;;46.09;40.92;101275.38;4356604;39;98883;-77
2021/08/02 08:19:42;;;;;;;;;;;38.60;67.10;;;44.30;44.19;101277.09;4370683;39;96921;-78
2021/08/02 08:22:47;;;;;;;;;;;38.00;68.10;;;42.46;47.71;101269.75;4361115;39;98646;-77
2021/08/02 08:25:51;;;;;;;;;;;37.20;68.40;;;41.79;48.37;101277.13;4355573;39;96790;-77
2021/08/02 08:28:55;;;;;;;;;;;36.20;69.20;;;42.02;47.27;101267.50;4375298;39;97121;-78
2021/08/02 08:31:59;;;;;;;;;;;35.70;70.50;;;41.28;49.45;101259.59;4360025;39;97550;-77
2021/08/02 08:35:07;;;;;;;;;;;35.30;71.00;;;41.34;48.66;101269.63;4375561;39;97535;-77
2021/08/02 08:38:13;;;;;;;;;;;35.00;71.80;;;40.33;50.46;101261.91;4384112;39;96640;-77
2021/08/02 08:41:19;;;;;;;;;;;34.70;72.10;;;39.18;52.87;101277.06;4356025;39;98693;-77
2021/08/02 08:44:28;;;;;;;;;;;34.30;72.00;;;38.37;53.75;101272.19;4378343;39;96733;-77
2021/08/02 08:47:34;;;;;;;;;;;33.60;72.50;;;37.87;54.72;101269.53;4376454;39;97989;-77
2021/08/02 08:50:39;;;;;;;;;;;33.20;73.00;;;37.54;54.90;101274.38;4378498;39;99048;-78
2021/08/02 08:53:47;;;;;;;;;;;32.80;73.90;;;38.86;51.00;101278.00;4379106;39;97648;-77
2021/08/02 08:56:52;;;;;;;;;;;32.50;73.90;;;38.50;51.39;101274.72;4361509;39;96907;-77
2021/08/02 08:59:56;;;;;;;;;;;32.50;74.20;;;37.74;53.27;101280.19;4379044;39;99076;-77
2021/08/02 09:03:10;;;;;;;;;;;32.40;74.00;;;37.75;53.59;101282.50;4361346;39;97490;-77
2021/08/02 09:06:15;;;;;;;;;;;32.30;74.40;;;36.81;55.69;101281.38;4370883;39;96895;-76
2021/08/02 09:09:30;;;;;;;;;;;32.00;74.50;;;36.36;56.29;101281.34;4370534;39;97693;-76
2021/08/02 09:12:34;;;;;;;;;;;31.70;74.60;;;36.07;56.98;101283.03;4370618;39;97616;-77
2021/08/02 09:15:42;;;;;;;;;;;31.40;75.40;;;36.08;56.69;101276.22;4384971;39;97148;-77
2021/08/02 09:19:02;;;;;;;;;;;31.10;75.70;;;35.41;57.47;101280.13;4373520;39;99491;-77
2021/08/02 09:22:11;;;;;;;;;;;30.90;75.40;;;34.59;59.24;101284.34;4375564;39;97573;-77
2021/08/02 09:25:19;;;;;;;;;;;30.50;75.50;;;33.71;60.83;101284.97;4376404;39;97702;-77
2021/08/02 09:28:24;;;;;;;;;;;30.10;76.30;;;33.03;62.10;101282.63;4363378;39;96971;-76
2021/08/02 09:31:36;;;;;;;;;;;29.50;77.00;;;32.98;61.85;101283.16;4379496;39;96642;-77
2021/08/02 09:34:47;;;;;;;;;;;29.10;77.50;;;32.82;62.19;101283.22;4377203;39;97746;-76
2021/08/02 09:37:55;;;;;;;;;;;28.80;78.50;;;32.89;61.94;101279.47;4360819;39;98554;-77
2021/08/02 09:41:00;;;;;;;;;;;28.70;78.90;;;32.98;61.69;101285.16;4379869;39;97741;-76
2021/08/02 09:44:17;;;;;;;;;;;28.60;79.00;;;32.96;61.41;101287.59;4389395;39;97470;-77
2021/08/02 09:47:28;;;;;;;;;;;28.50;79.10;;;33.05;61.34;101290.53;4378940;39;97526;-77
2021/08/02 09:50:33;;;;;;;;;;;28.50;79.10;;;33.07;60.40;101288.09;4377373;39;97099;-76
2021/08/02 09:53:39;;;;;;;;;;;28.40;78.90;;;33.42;59.89;101287.81;4385851;39;96659;-76
2021/08/02 09:56:49;;;;;;;;;;;28.30;79.00;;;33.91;58.33;101285.50;4377840;39;97227;-76
2021/08/02 09:59:53;;;;;;;;;;;28.40;79.40;;;34.20;58.05;101293.25;4369149;39;96807;-76
2021/08/02 10:02:59;;;;;;;;;;;28.60;79.20;;;34.21;58.24;101297.59;4379250;39;97869;-77
2021/08/02 10:06:07;;;;;;;;;;;28.80;79.10;;;33.83;59.88;101295.28;4370536;39;96570;-76
2021/08/02 10:09:15;;;;;;;;;;;28.80;79.50;;;33.38;61.13;101289.16;4361324;39;97547;-77
2021/08/02 10:12:21;;;;;;;;;;;28.70;80.00;;;32.93;62.29;101288.47;4378141;39;97657;-76
2021/08/02 10:15:27;;;;;;;;;;;28.50;79.80;;;32.03;64.34;101286.88;4378108;39;98469;-76
2021/08/02 10:18:32;;;;;;;;;;;28.20;80.20;;;31.32;65.64;101298.03;4378159;39;97632;-77
2021/08/02 10:21:44;;;;;;;;;;;27.70;80.60;;;30.45;67.40;101307.22;4370202;39;100115;-77
2021/08/02 10:24:50;;;;;;;;;;;27.20;80.80;;;29.88;68.11;101306.56;4365812;39;97085;-76
2021/08/02 10:28:07;;;;;;;;;;;26.70;81.90;;;29.59;68.38;101297.94;4372346;39;97584;-76
2021/08/02 10:31:11;;;;;;;;;;;26.20;82.40;;;29.77;68.94;101292.91;4364771;39;98371;-77
2021/08/02 10:34:25;;;;;;;;;;;26.00;84.00;;;30.51;67.48;101303.56;4369355;39;97547;-77
2021/08/02 10:37:31;;;;;;;;;;;26.10;84.50;;;30.63;67.28;101305.72;4368532;39;97690;-76
2021/08/02 10:40:57;;;;;;;;;;;26.30;84.50;;;31.17;66.62;101296.00;4379787;39;97594;-76
2021/08/02 10:44:14;;;;;;;;;;;26.60;84.70;;;31.69;65.36;101303.16;4357287;39;97548;-76
2021/08/02 10:47:18;;;;;;;;;;;26.80;84.60;;;32.33;64.25;101300.41;4368067;39;96544;-76
2021/08/02 10:50:25;;;;;;;;;;;27.20;84.70;;;32.46;64.74;101304.03;4378286;39;97527;-75
2021/08/02 10:53:29;;;;;;;;;;;27.50;84.10;;;32.63;65.04;101303.56;4362451;39;97691;-75
2021/08/02 10:56:34;;;;;;;;;;;27.70;84.30;;;32.90;64.21;101289.34;4369475;39;97526;-75
2021/08/02 10:59:40;;;;;;;;;;;27.90;84.90;;;33.20;63.52;101292.47;4376238;39;97538;-75
2021/08/02 11:02:51;;;;;;;;;;;28.20;83.90;;;33.26;63.75;101292.69;4374389;39;97495;-75
2021/08/02 11:05:55;;;;;;;;;;;28.40;83.30;;;32.55;65.40;101301.41;4374194;39;96632;-75
2021/08/02 11:08:59;;;;;;;;;;;28.30;82.90;;;31.71;66.90;101292.41;4377543;39;97264;-75
2021/08/02 11:12:19;;;;;;;;;;;28.00;82.90;;;30.71;68.86;101298.09;4374799;39;96933;-75
2021/08/02 11:15:24;;;;;;;;;;;27.50;82.60;;;29.98;69.77;101300.88;4376869;39;96709;-75
2021/08/02 11:18:29;;;;;;;;;;;26.90;82.90;;;29.52;71.01;101300.78;4374925;39;96587;-76
2021/08/02 11:21:33;;;;;;;;;;;26.40;83.80;;;29.74;70.63;101298.50;4381256;39;97879;-77
2021/08/02 11:24:39;;;;;;;;;;;26.20;85.20;;;30.52;69.02;101296.03;4361718;39;99696;-76
2021/08/02 11:27:51;;;;;;;;;;;26.30;86.30;;;31.18;67.76;101297.53;4370102;39;97835;-76
2021/08/02 11:30:56;;;;;;;;;;;26.50;86.80;;;31.66;67.07;101287.38;4375969;39;96754;-76
2021/08/02 11:34:19;;;;;;;;;;;26.80;86.70;;;32.11;66.09;101284.72;4370157;39;96744;-76
2021/08/02 11:37:25;;;;;;;;;;;27.20;85.90;;;32.88;64.53;101286.25;4360328;39;99365;-75
2021/08/02 11:40:35;;;;;;;;;;;27.70;85.20;;;32.75;65.05;101286.19;4376545;39;97045;-74
2021/08/02 11:43:44;;;;;;;;;;;28.00;84.30;;;32.57;65.56;101291.41;4376431;39;96904;-74
2021/08/02 11:46:49;;;;;;;;;;;28.10;84.00;;;31.78;67.12;101300.56;4368969;39;96943;-74
2021/08/02 11:49:55;;;;;;;;;;;27.90;83.40;;;30.81;69.30;101303.41;4383238;39;97978;-73
2021/08/02 11:53:03;;;;;;;;;;;27.50;83.50;;;30.31;69.71;101302.72;4374609;39;97504;-73
2021/08/02 11:56:06;;;;;;;;;;;27.00;84.10;;;29.99;70.60;101302.44;4376507;39;96651;-73
2021/08/02 11:59:19;;;;;;;;;;;26.70;84.40;;;29.78;70.70;101300.00;4362534;39;97643;-74
2021/08/02 12:02:35;;;;;;;;;;;26.40;84.40;;;30.49;69.56;101300.44;4376454;39;97610;-75
2021/08/02 12:05:40;;;;;;;;;;;26.40;85.60;;;30.79;68.64;101306.59;4378016;39;97192;-73
2021/08/02 12:08:53;;;;;;;;;;;26.60;85.20;;;30.53;68.99;101298.38;4371199;39;97839;-74
2021/08/02 12:11:58;;;;;;;;;;;26.50;84.80;;;30.43;69.38;101299.34;4376903;39;97583;-73
2021/08/02 12:15:06;;;;;;;;;;;26.40;85.10;;;30.89;68.09;101294.53;4378457;39;97240;-74
2021/08/02 12:18:22;;;;;;;;;;;26.50;86.00;;;31.38;67.69;101299.06;4380153;39;97459;-74
2021/08/02 12:21:25;;;;;;;;;;;26.80;86.20;;;31.67;67.34;101291.72;4373126;39;97379;-74
2021/08/02 12:24:29;;;;;;;;;;;27.00;85.70;;;31.22;68.69;101307.31;4364296;39;97691;-74
2021/08/02 12:27:34;;;;;;;;;;;27.10;85.50;;;30.59;69.80;101296.72;4379034;39;97763;-74
2021/08/02 12:30:39;;;;;;;;;;;26.90;85.40;;;30.15;70.40;101299.81;4379568;39;98613;-73
2021/08/02 12:33:47;;;;;;;;;;;26.60;85.30;;;29.73;70.94;101299.72;4375203;39;96877;-73
2021/08/02 12:36:54;;;;;;;;;;;26.30;84.90;;;29.16;71.33;101298.91;4378202;39;97721;-73
2021/08/02 12:39:57;;;;;;;;;;;26.00;84.80;;;28.98;72.18;101294.78;4375939;39;99268;-73
2021/08/02 12:43:04;;;;;;;;;;;25.70;85.80;;;29.90;70.36;101301.41;4374366;39;96707;-73
2021/08/02 12:46:08;;;;;;;;;;;25.70;86.80;;;30.38;68.72;101315.66;4381075;39;97450;-73
2021/08/02 12:49:13;;;;;;;;;;;26.00;86.10;;;30.34;69.07;101309.41;4375521;39;98495;-73
2021/08/02 12:52:22;;;;;;;;;;;26.10;86.40;;;30.21;69.32;101313.97;4375710;39;96959;-72
2021/08/02 12:55:26;;;;;;;;;;;26.10;85.60;;;30.38;68.95;101313.66;4379031;39;97624;-73
2021/08/02 12:58:30;;;;;;;;;;;26.10;85.70;;;30.66;68.45;101312.41;4371389;39;96781;-73
2021/08/02 13:01:34;;;;;;;;;;;26.30;85.70;;;30.51;69.19;101317.41;4371747;39;97553;-73
2021/08/02 13:04:39;;;;;;;;;;;26.30;86.10;;;30.21;69.71;101311.19;4375178;39;97166;-73
2021/08/02 13:07:43;;;;;;;;;;;26.30;85.90;;;29.86;70.26;101311.75;4369620;39;97520;-73
2021/08/02 13:10:48;;;;;;;;;;;26.10;85.70;;;30.19;69.77;101306.09;4367102;39;97015;-73
2021/08/02 13:13:52;;;;;;;;;;;26.10;86.50;;;29.87;70.70;101305.78;4368178;39;96818;-72
2021/08/02 13:16:55;;;;;;;;;;;26.10;86.70;;;29.87;70.98;101297.50;4368460;39;97326;-72
2021/08/02 13:20:01;;;;;;;;;;;26.00;86.80;;;29.45;71.86;101302.88;4376922;39;96858;-72
2021/08/02 13:23:21;;;;;;;;;;;25.90;87.00;;;29.38;72.05;101298.19;4374632;39;98654;-72
2021/08/02 13:29:48;;;;;;;;;;;25.60;87.20;;;29.45;72.34;101308.41;4374894;39;97259;-73
2021/08/02 13:32:52;;;;;;;;;;;25.60;88.20;;;29.73;71.45;101300.47;4373912;39;97530;-73
2021/08/02 13:36:01;;;;;;;;;;;25.70;88.00;;;29.97;71.07;101304.84;4375415;39;97478;-72
2021/08/02 13:39:09;;;;;;;;;;;25.80;87.80;;;30.31;70.42;101296.41;4370615;39;97497;-72
2021/08/02 13:42:14;;;;;;;;;;;26.00;87.90;;;30.57;69.75;101290.03;4366681;39;97264;-73
2021/08/02 13:45:18;;;;;;;;;;;26.20;88.10;;;30.79;69.72;101283.69;4375409;39;97071;-73
2021/08/02 13:48:23;;;;;;;;;;;26.40;87.80;;;31.18;68.61;101284.47;4378711;39;97515;-73
2021/08/02 13:51:29;;;;;;;;;;;26.70;86.70;;;31.70;67.81;101290.09;4378672;39;97192;-73
2021/08/02 13:54:33;;;;;;;;;;;27.10;86.70;;;31.90;67.43;101294.34;4375436;39;96819;-72
2021/08/02 13:57:38;;;;;;;;;;;27.30;85.80;;;32.29;66.65;101294.16;4373575;39;97817;-73
2021/08/02 14:00:42;;;;;;;;;;;27.60;85.40;;;32.52;66.44;101296.75;4375975;39;99293;-73
2021/08/02 14:03:46;;;;;;;;;;;27.80;84.90;;;32.49;66.76;101287.28;4375767;39;98716;-74
2021/08/02 14:06:51;;;;;;;;;;;28.10;84.90;;;32.42;67.28;101292.22;4378405;39;99147;-73
2021/08/02 14:09:55;;;;;;;;;;;28.10;84.60;;;32.20;67.77;101288.47;4378635;39;97414;-73
2021/08/02 14:13:03;;;;;;;;;;;28.10;84.50;;;31.36;69.53;101293.19;4378119;39;96893;-73